Time;durP1;ratioP1;P1;durP2;ratioP2;P2;SDS_P1;SDS_P2;PMS_P1;PMS_P2;Temp;Humidity;BMP_temperature;BMP_pressure;BME280_temperature;BME280_humidity;BME280_pressure;Samples;Min_cycle;Max_cycle;Signal;HPM_P1;HPM_P2
2022/09/07 00:04:50;;;;;;;5.40;4.75;;;;;;;;;;10404807;28;20026;-80
2022/09/07 00:09:50;;;;;;;5.22;4.68;;;;;;;;;;10404849;28;20470;-79
2022/09/07 00:14:50;;;;;;;5.68;4.15;;;;;;;;;;10402833;28;20091;-78
2022/09/07 00:19:50;;;;;;;4.82;4.30;;;;;;;;;;10403408;28;20021;-77
2022/09/07 00:24:51;;;;;;;7.07;4.65;;;;;;;;;;10404480;28;20029;-78
2022/09/07 00:29:51;;;;;;;5.43;3.60;;;;;;;;;;10392321;28;20695;-78
2022/09/07 00:34:51;;;;;;;6.63;3.80;;;;;;;;;;10400016;28;20072;-78
2022/09/07 00:39:51;;;;;;;4.00;3.58;;;;;;;;;;10401691;28;20108;-78
2022/09/07 00:45:07;;;;;;;5.25;3.40;;;;;;;;;;10401933;28;20492;-79
2022/09/07 00:50:38;;;;;;;6.47;3.92;;;;;;;;;;10394165;28;20061;-80
2022/09/07 00:55:39;;;;;;;7.05;3.88;;;;;;;;;;10401822;28;20153;-80
2022/09/07 01:00:40;;;;;;;4.32;3.13;;;;;;;;;;10400362;28;20026;-81
2022/09/07 01:05:43;;;;;;;6.43;3.20;;;;;;;;;;10403068;28;20033;-80
2022/09/07 01:10:49;;;;;;;5.65;3.30;;;;;;;;;;10408999;28;20026;-84
2022/09/07 01:15:52;;;;;;;5.97;3.90;;;;;;;;;;10404224;28;20041;-83
2022/09/07 01:20:52;;;;;;;6.40;3.20;;;;;;;;;;10406681;28;20431;-82
2022/09/07 01:26:11;;;;;;;5.35;3.60;;;;;;;;;;10408531;28;20025;-81
2022/09/07 01:31:11;;;;;;;;;;;;;;;;;;10406093;28;20022;-81
2022/09/07 01:36:30;;;;;;;7.30;3.38;;;;;;;;;;10409522;28;19909;-84
2022/09/07 01:41:37;;;;;;;5.43;2.90;;;;;;;;;;10400628;28;20025;-80
2022/09/07 01:46:41;;;;;;;3.40;2.72;;;;;;;;;;10412815;28;20071;-81
2022/09/07 01:51:43;;;;;;;3.25;2.75;;;;;;;;;;10410028;28;20648;-80
2022/09/07 01:56:45;;;;;;;4.70;2.80;;;;;;;;;;10410555;28;20191;-82
2022/09/07 02:02:04;;;;;;;4.10;3.05;;;;;;;;;;10409752;28;20415;-81
2022/09/07 02:07:08;;;;;;;3.60;3.08;;;;;;;;;;10409761;28;20823;-80
2022/09/07 02:12:21;;;;;;;5.13;3.50;;;;;;;;;;10406358;28;20053;-83
2022/09/07 02:17:27;;;;;;;5.15;3.35;;;;;;;;;;10416478;28;20034;-81
2022/09/07 02:22:29;;;;;;;5.60;3.03;;;;;;;;;;10408533;28;20021;-80
2022/09/07 02:27:39;;;;;;;5.97;3.67;;;;;;;;;;10408522;28;20034;-80
2022/09/07 02:32:44;;;;;;;6.13;2.70;;;;;;;;;;10388869;28;20523;-79
2022/09/07 02:37:46;;;;;;;5.88;3.05;;;;;;;;;;10410480;28;20088;-81
2022/09/07 02:42:47;;;;;;;6.47;3.03;;;;;;;;;;10408265;28;20025;-81
2022/09/07 02:47:53;;;;;;;3.95;2.90;;;;;;;;;;10407325;28;20056;-80
2022/09/07 02:52:53;;;;;;;7.57;3.00;;;;;;;;;;10406926;28;20506;-80
2022/09/07 02:58:12;;;;;;;5.55;2.70;;;;;;;;;;10406482;28;20041;-79
2022/09/07 03:03:21;;;;;;;7.68;2.85;;;;;;;;;;10400491;28;20038;-79
2022/09/07 03:08:21;;;;;;;;;;;;;;;;;;10406517;28;20037;-79
2022/09/07 03:13:23;;;;;;;5.90;3.53;;;;;;;;;;10407607;28;19909;-79
2022/09/07 03:18:24;;;;;;;5.43;2.97;;;;;;;;;;10405091;28;20031;-79
2022/09/07 03:23:24;;;;;;;4.40;2.50;;;;;;;;;;10408385;28;20029;-78
2022/09/07 03:28:24;;;;;;;4.60;2.70;;;;;;;;;;10406325;28;20032;-82
2022/09/07 03:33:26;;;;;;;8.20;2.97;;;;;;;;;;10409922;28;20427;-82
2022/09/07 03:38:29;;;;;;;4.57;2.75;;;;;;;;;;10391248;28;20029;-77
2022/09/07 03:43:32;;;;;;;5.32;3.20;;;;;;;;;;10398356;28;20130;-82
2022/09/07 03:48:39;;;;;;;6.53;3.45;;;;;;;;;;10406272;28;20029;-81
2022/09/07 03:53:41;;;;;;;3.97;2.97;;;;;;;;;;10408894;28;20407;-81
2022/09/07 03:58:41;;;;;;;4.10;3.17;;;;;;;;;;10404636;28;20427;-78
2022/09/07 04:03:42;;;;;;;4.50;2.72;;;;;;;;;;10400664;28;20028;-77
2022/09/07 04:08:42;;;;;;;3.05;2.40;;;;;;;;;;10401169;28;20021;-78
2022/09/07 04:13:43;;;;;;;3.67;2.33;;;;;;;;;;10393932;28;20617;-81
2022/09/07 04:18:45;;;;;;;8.52;2.88;;;;;;;;;;10377297;28;20050;-81
2022/09/07 04:23:45;;;;;;;5.25;3.03;;;;;;;;;;10377113;28;20532;-81
2022/09/07 04:28:46;;;;;;;6.50;2.92;;;;;;;;;;10372127;28;20061;-77
2022/09/07 04:33:47;;;;;;;6.45;3.08;;;;;;;;;;10362063;28;20026;-78
2022/09/07 04:38:52;;;;;;;3.72;2.70;;;;;;;;;;10373325;28;20080;-81
2022/09/07 04:44:02;;;;;;;4.22;2.80;;;;;;;;;;10366204;28;20026;-86
2022/09/07 04:49:17;;;;;;;7.28;3.20;;;;;;;;;;10393418;28;20025;-78
2022/09/07 04:54:17;;;;;;;6.43;3.20;;;;;;;;;;10375069;28;20025;-82
2022/09/07 04:59:19;;;;;;;11.10;3.63;;;;;;;;;;10351513;28;20026;-82
2022/09/07 05:04:19;;;;;;;7.20;3.13;;;;;;;;;;10379625;28;20018;-82
2022/09/07 05:09:19;;;;;;;8.55;3.60;;;;;;;;;;10371997;28;20033;-84
2022/09/07 05:14:20;;;;;;;9.50;3.15;;;;;;;;;;10369543;28;20037;-81
2022/09/07 05:19:20;;;;;;;8.15;2.95;;;;;;;;;;10368180;28;20024;-82
2022/09/07 05:24:20;;;;;;;8.40;2.87;;;;;;;;;;10374077;28;20030;-82
2022/09/07 05:29:21;;;;;;;5.18;2.42;;;;;;;;;;10389394;28;20052;-83
2022/09/07 05:34:21;;;;;;;6.03;2.78;;;;;;;;;;10389721;28;20079;-81
2022/09/07 05:39:23;;;;;;;5.22;2.92;;;;;;;;;;10400688;28;20098;-85
2022/09/07 05:44:31;;;;;;;8.00;2.92;;;;;;;;;;10401656;28;20500;-84
2022/09/07 05:49:32;;;;;;;4.22;2.25;;;;;;;;;;10398027;28;20021;-80
2022/09/07 05:54:32;;;;;;;9.93;2.90;;;;;;;;;;10403627;28;20495;-81
2022/09/07 05:59:33;;;;;;;4.88;3.15;;;;;;;;;;10408140;28;20014;-79
2022/09/07 06:04:33;;;;;;;4.60;2.30;;;;;;;;;;10409500;28;20040;-79
2022/09/07 06:09:35;;;;;;;10.80;2.50;;;;;;;;;;10406953;28;20032;-85
2022/09/07 06:14:36;;;;;;;4.07;2.30;;;;;;;;;;10408583;28;20057;-80
2022/09/07 06:19:37;;;;;;;17.02;2.85;;;;;;;;;;10401941;28;20171;-83
2022/09/07 06:24:38;;;;;;;6.95;2.72;;;;;;;;;;10411924;28;20021;-79
2022/09/07 06:29:38;;;;;;;5.47;1.95;;;;;;;;;;10408927;28;20558;-83
2022/09/07 06:34:59;;;;;;;16.13;2.60;;;;;;;;;;10404579;28;20080;-76
2022/09/07 06:40:00;;;;;;;6.53;1.90;;;;;;;;;;10409235;28;20272;-80
2022/09/07 06:45:00;;;;;;;4.50;2.07;;;;;;;;;;10403616;28;20048;-80
2022/09/07 06:50:01;;;;;;;4.97;2.30;;;;;;;;;;10403965;28;20032;-76
2022/09/07 06:55:01;;;;;;;3.35;2.20;;;;;;;;;;10405680;28;20300;-82
2022/09/07 07:00:01;;;;;;;2.20;1.75;;;;;;;;;;10407219;28;20052;-80
2022/09/07 07:05:02;;;;;;;3.78;1.65;;;;;;;;;;10404123;28;20032;-79
2022/09/07 07:10:02;;;;;;;6.30;1.77;;;;;;;;;;10405511;28;20049;-78
2022/09/07 07:15:03;;;;;;;13.93;1.93;;;;;;;;;;10406028;28;20021;-82
2022/09/07 07:20:03;;;;;;;4.75;1.70;;;;;;;;;;10405451;28;20022;-80
2022/09/07 07:25:04;;;;;;;2.92;1.20;;;;;;;;;;10399101;28;20510;-80
2022/09/07 07:30:05;;;;;;;9.18;1.67;;;;;;;;;;10399906;28;20366;-78
2022/09/07 07:35:07;;;;;;;3.45;1.20;;;;;;;;;;10391311;28;20025;-77
2022/09/07 07:40:09;;;;;;;12.45;3.85;;;;;;;;;;10405681;28;20475;-78
2022/09/07 07:45:11;;;;;;;6.50;3.17;;;;;;;;;;10407287;28;20025;-82
2022/09/07 07:50:11;;;;;;;8.48;1.55;;;;;;;;;;10411848;28;20175;-83
2022/09/07 07:55:11;;;;;;;12.38;2.60;;;;;;;;;;10407016;28;20045;-83
2022/09/07 08:00:13;;;;;;;4.18;1.35;;;;;;;;;;10405513;28;20025;-80
2022/09/07 08:05:15;;;;;;;13.07;1.70;;;;;;;;;;10405695;28;20064;-81
2022/09/07 08:10:16;;;;;;;10.13;2.05;;;;;;;;;;10403108;28;20116;-86
2022/09/07 08:15:17;;;;;;;4.45;2.10;;;;;;;;;;10403114;28;20036;-80
2022/09/07 08:20:18;;;;;;;7.22;1.42;;;;;;;;;;10399943;28;20026;-85
2022/09/07 08:25:19;;;;;;;2.10;1.45;;;;;;;;;;10407007;28;20037;-80
2022/09/07 08:30:21;;;;;;;4.03;1.42;;;;;;;;;;10385053;28;20041;-79
2022/09/07 08:35:21;;;;;;;1.48;1.08;;;;;;;;;;10405479;28;20467;-80
2022/09/07 08:40:24;;;;;;;6.50;1.50;;;;;;;;;;10406252;28;20037;-81
2022/09/07 08:45:40;;;;;;;6.13;1.13;;;;;;;;;;10406246;28;20041;-86
2022/09/07 08:50:53;;;;;;;2.47;1.37;;;;;;;;;;10389915;28;20041;-81
2022/09/07 08:55:57;;;;;;;3.90;1.73;;;;;;;;;;10407013;28;20168;-85
2022/09/07 09:00:57;;;;;;;3.38;1.65;;;;;;;;;;10390333;28;20040;-80
2022/09/07 09:06:06;;;;;;;3.40;1.67;;;;;;;;;;10404810;28;20093;-80
2022/09/07 09:11:30;;;;;;;5.32;1.55;;;;;;;;;;10406800;28;20032;-79
2022/09/07 09:16:49;;;;;;;2.45;1.70;;;;;;;;;;10392647;28;20446;-87
2022/09/07 09:22:01;;;;;;;5.50;1.65;;;;;;;;;;10403166;28;20531;-84
2022/09/07 09:27:01;;;;;;;4.63;1.50;;;;;;;;;;10388346;28;20025;-82
2022/09/07 09:32:20;;;;;;;3.83;1.60;;;;;;;;;;10411097;28;20167;-82
2022/09/07 09:37:38;;;;;;;3.63;1.98;;;;;;;;;;10398478;28;20299;-82
2022/09/07 09:42:39;;;;;;;4.25;1.75;;;;;;;;;;10409589;28;20022;-82
2022/09/07 09:47:39;;;;;;;8.73;1.73;;;;;;;;;;10410809;28;20383;-82
2022/09/07 09:52:44;;;;;;;3.73;1.53;;;;;;;;;;10409080;28;20072;-82
2022/09/07 09:57:45;;;;;;;4.70;1.60;;;;;;;;;;10410003;28;20057;-81
2022/09/07 10:03:05;;;;;;;4.60;1.90;;;;;;;;;;10415771;28;20096;-82
2022/09/07 10:08:14;;;;;;;5.63;1.45;;;;;;;;;;10413464;28;20116;-83
2022/09/07 10:13:24;;;;;;;3.15;1.33;;;;;;;;;;10409130;28;20021;-82
2022/09/07 10:18:31;;;;;;;4.30;1.20;;;;;;;;;;10414969;28;20030;-83
2022/09/07 10:23:33;;;;;;;2.80;1.25;;;;;;;;;;10395556;28;20033;-84
2022/09/07 10:28:33;;;;;;;2.50;1.00;;;;;;;;;;10412194;28;20186;-85
2022/09/07 10:33:52;;;;;;;4.18;1.00;;;;;;;;;;10408110;28;20535;-81
2022/09/07 10:39:11;;;;;;;4.50;1.30;;;;;;;;;;10390201;28;20411;-85
2022/09/07 10:44:20;;;;;;;4.18;1.13;;;;;;;;;;10409680;28;20091;-82
2022/09/07 10:49:29;;;;;;;1.77;1.50;;;;;;;;;;10408678;28;20120;-80
2022/09/07 10:54:52;;;;;;;2.03;1.20;;;;;;;;;;10408069;28;20030;-81
2022/09/07 11:00:25;;;;;;;4.55;1.80;;;;;;;;;;10407256;28;20148;-85
2022/09/07 11:05:31;;;;;;;6.75;1.05;;;;;;;;;;10410710;28;20033;-78
2022/09/07 11:10:35;;;;;;;3.65;1.42;;;;;;;;;;10406467;28;20030;-79
2022/09/07 11:15:44;;;;;;;3.95;1.70;;;;;;;;;;10400736;28;20116;-80
2022/09/07 11:20:53;;;;;;;3.63;1.50;;;;;;;;;;10408362;28;20163;-84
2022/09/07 11:26:12;;;;;;;2.40;1.70;;;;;;;;;;10407462;28;20030;-83
2022/09/07 11:31:22;;;;;;;4.28;1.95;;;;;;;;;;10406928;28;20048;-81
2022/09/07 11:36:24;;;;;;;6.70;1.80;;;;;;;;;;10405574;28;20083;-80
2022/09/07 11:41:51;;;;;;;3.45;2.28;;;;;;;;;;10411229;28;20349;-83
2022/09/07 11:46:53;;;;;;;4.40;2.42;;;;;;;;;;10408567;28;20048;-83
2022/09/07 11:57:40;;;;;;;4.50;2.37;;;;;;;;;;10435289;28;20049;-84
2022/09/07 12:02:44;;;;;;;7.05;2.13;;;;;;;;;;10393213;28;20033;-78
2022/09/07 12:07:51;;;;;;;3.15;2.33;;;;;;;;;;10416294;28;20492;-83
2022/09/07 12:13:06;;;;;;;3.60;2.28;;;;;;;;;;10405724;28;20037;-80
2022/09/07 12:18:25;;;;;;;5.53;2.35;;;;;;;;;;10404892;28;20061;-80
2022/09/07 12:23:30;;;;;;;6.00;2.58;;;;;;;;;;10412434;28;20083;-76
2022/09/07 12:28:35;;;;;;;4.32;2.50;;;;;;;;;;10412203;28;20060;-80
2022/09/07 12:33:37;;;;;;;5.93;2.25;;;;;;;;;;10405129;28;20037;-80
2022/09/07 12:38:58;;;;;;;13.95;2.92;;;;;;;;;;10403755;28;20472;-81
2022/09/07 12:44:05;;;;;;;2.72;2.17;;;;;;;;;;10403244;28;20025;-80
2022/09/07 12:49:15;;;;;;;7.18;2.30;;;;;;;;;;10402738;28;20021;-81
2022/09/07 12:54:25;;;;;;;3.95;2.63;;;;;;;;;;10405571;28;20125;-78
2022/09/07 12:59:43;;;;;;;3.55;2.05;;;;;;;;;;10402457;28;20533;-80
2022/09/07 13:05:11;;;;;;;3.88;2.47;;;;;;;;;;10408442;28;20498;-82
2022/09/07 13:10:12;;;;;;;;;;;;;;;;;;10412114;28;20018;-81
2022/09/07 13:15:31;;;;;;;3.25;2.60;;;;;;;;;;10412009;28;19909;-81
2022/09/07 13:20:31;;;;;;;2.63;2.10;;;;;;;;;;10411746;28;20040;-79
2022/09/07 13:25:44;;;;;;;6.20;2.05;;;;;;;;;;10412034;28;20032;-82
2022/09/07 13:30:55;;;;;;;7.03;2.00;;;;;;;;;;10409849;28;20470;-81
2022/09/07 13:35:59;;;;;;;2.45;2.03;;;;;;;;;;10412931;28;20021;-79
2022/09/07 13:41:20;;;;;;;2.67;1.98;;;;;;;;;;10411446;28;20021;-82
2022/09/07 13:46:39;;;;;;;3.72;2.35;;;;;;;;;;10409027;28;20061;-82
2022/09/07 13:52:00;;;;;;;2.13;1.60;;;;;;;;;;10411446;28;20095;-79
2022/09/07 13:57:19;;;;;;;4.28;2.20;;;;;;;;;;10409118;28;20056;-81
2022/09/07 14:02:27;;;;;;;4.68;2.47;;;;;;;;;;10413892;28;20033;-82
2022/09/07 14:07:28;;;;;;;3.17;2.33;;;;;;;;;;10408423;28;20040;-81
2022/09/07 14:12:28;;;;;;;4.47;2.22;;;;;;;;;;10408223;28;20518;-82
2022/09/07 14:17:30;;;;;;;3.33;2.20;;;;;;;;;;10391682;28;20025;-80
2022/09/07 14:22:32;;;;;;;4.35;2.45;;;;;;;;;;10411019;28;20032;-79
2022/09/07 14:27:33;;;;;;;5.57;2.40;;;;;;;;;;10408519;28;20349;-80
2022/09/07 14:32:40;;;;;;;4.43;2.20;;;;;;;;;;10409986;28;20029;-84
2022/09/07 14:37:42;;;;;;;2.95;2.20;;;;;;;;;;10392219;28;20061;-83
2022/09/07 14:42:43;;;;;;;2.65;2.10;;;;;;;;;;10409018;28;20022;-82
2022/09/07 14:47:45;;;;;;;2.78;2.22;;;;;;;;;;10408761;28;20120;-80
2022/09/07 14:52:48;;;;;;;6.78;2.60;;;;;;;;;;10407006;28;20116;-81
2022/09/07 14:57:49;;;;;;;4.88;2.75;;;;;;;;;;10407393;28;20085;-81
2022/09/07 15:02:59;;;;;;;4.07;2.90;;;;;;;;;;10407455;28;20021;-84
2022/09/07 15:08:01;;;;;;;4.53;2.28;;;;;;;;;;10408344;28;20106;-80
2022/09/07 15:13:07;;;;;;;4.28;2.00;;;;;;;;;;10408624;28;20010;-83
2022/09/07 15:18:40;;;;;;;3.28;2.22;;;;;;;;;;10411395;28;20495;-81
2022/09/07 15:23:53;;;;;;;5.68;3.00;;;;;;;;;;10388981;28;20041;-83
2022/09/07 15:28:53;;;;;;;6.10;2.80;;;;;;;;;;10411400;28;20079;-84
2022/09/07 15:33:54;;;;;;;9.18;3.28;;;;;;;;;;10407098;28;20192;-82
2022/09/07 15:38:55;;;;;;;7.60;2.42;;;;;;;;;;10407316;28;20625;-82
2022/09/07 15:43:56;;;;;;;5.78;2.28;;;;;;;;;;10409783;28;20029;-80
2022/09/07 15:48:57;;;;;;;6.07;2.47;;;;;;;;;;10410825;28;20038;-85
2022/09/07 15:54:00;;;;;;;3.78;2.67;;;;;;;;;;10406096;28;20047;-81
2022/09/07 15:59:00;;;;;;;5.40;2.60;;;;;;;;;;10409457;28;20107;-82
2022/09/07 16:04:03;;;;;;;3.10;2.70;;;;;;;;;;10407857;28;20087;-84
2022/09/07 16:09:06;;;;;;;2.97;2.22;;;;;;;;;;10408880;28;20399;-82
2022/09/07 16:14:11;;;;;;;5.22;2.50;;;;;;;;;;10407590;28;20099;-81
2022/09/07 16:19:12;;;;;;;3.15;2.45;;;;;;;;;;10405326;28;20021;-82
2022/09/07 16:24:15;;;;;;;9.68;3.17;;;;;;;;;;10406496;28;20030;-84
2022/09/07 16:29:18;;;;;;;3.90;2.67;;;;;;;;;;10408188;28;20036;-84
2022/09/07 16:34:20;;;;;;;12.50;3.10;;;;;;;;;;10404534;28;20040;-83
2022/09/07 16:39:20;;;;;;;6.57;2.78;;;;;;;;;;10388498;28;20018;-79
2022/09/07 16:44:22;;;;;;;5.00;2.58;;;;;;;;;;10398750;28;20029;-82
2022/09/07 16:49:22;;;;;;;3.92;2.92;;;;;;;;;;10381335;28;20034;-82
2022/09/07 16:54:28;;;;;;;9.60;3.78;;;;;;;;;;10414757;28;20054;-81
2022/09/07 16:59:29;;;;;;;13.77;4.70;;;;;;;;;;10408679;28;20064;-82
2022/09/07 17:04:30;;;;;;;12.27;3.10;;;;;;;;;;10403888;28;20451;-80
2022/09/07 17:09:30;;;;;;;4.53;3.15;;;;;;;;;;10426005;23;20570;-79
2022/09/07 17:14:31;;;;;;;6.38;3.13;;;;;;;;;;10446687;28;20047;-83
2022/09/07 17:19:31;;;;;;;8.68;3.95;;;;;;;;;;10444235;28;20065;-81
2022/09/07 17:24:48;;;;;;;5.07;3.40;;;;;;;;;;10446543;28;20021;-88
2022/09/07 17:29:48;;;;;;;7.15;3.78;;;;;;;;;;10445345;28;20029;-81
2022/09/07 17:34:48;;;;;;;6.30;3.22;;;;;;;;;;10444703;28;20025;-84
2022/09/07 17:39:51;;;;;;;4.28;3.20;;;;;;;;;;10448609;28;20116;-80
2022/09/07 17:44:52;;;;;;;6.25;3.95;;;;;;;;;;10442891;28;20455;-81
2022/09/07 17:49:52;;;;;;;3.47;3.13;;;;;;;;;;10446659;28;20044;-79
2022/09/07 17:54:54;;;;;;;4.97;3.50;;;;;;;;;;10451675;28;20029;-82
2022/09/07 17:59:55;;;;;;;6.28;3.58;;;;;;;;;;10454377;28;20256;-80
2022/09/07 18:04:55;;;;;;;8.55;3.45;;;;;;;;;;10455658;28;20029;-79
2022/09/07 18:09:57;;;;;;;6.35;3.45;;;;;;;;;;10452923;28;20053;-78
2022/09/07 18:14:58;;;;;;;4.22;3.20;;;;;;;;;;10461674;28;20099;-79
2022/09/07 18:19:58;;;;;;;6.20;3.70;;;;;;;;;;10460545;28;20027;-80
2022/09/07 18:24:58;;;;;;;7.20;3.40;;;;;;;;;;10434442;28;20036;-81
2022/09/07 18:29:59;;;;;;;4.05;3.45;;;;;;;;;;10450181;28;20028;-81
2022/09/07 18:34:59;;;;;;;4.10;3.28;;;;;;;;;;10450430;28;20075;-80
2022/09/07 18:40:00;;;;;;;4.70;3.40;;;;;;;;;;10450845;28;20009;-81
2022/09/07 18:45:00;;;;;;;5.70;3.08;;;;;;;;;;10450272;28;20033;-79
2022/09/07 18:50:05;;;;;;;7.80;3.35;;;;;;;;;;10452135;28;20029;-85
2022/09/07 18:55:06;;;;;;;5.03;3.45;;;;;;;;;;10434702;28;20416;-84
2022/09/07 19:00:07;;;;;;;4.68;3.15;;;;;;;;;;10449627;28;20029;-86
2022/09/07 19:05:09;;;;;;;4.30;3.10;;;;;;;;;;10451728;28;20048;-80
2022/09/07 19:10:11;;;;;;;6.28;2.97;;;;;;;;;;10447325;28;20052;-80
2022/09/07 19:15:11;;;;;;;4.65;3.13;;;;;;;;;;10447784;28;20057;-80
2022/09/07 19:20:11;;;;;;;4.13;3.05;;;;;;;;;;10447170;28;20107;-79
2022/09/07 19:25:18;;;;;;;6.20;3.28;;;;;;;;;;10448334;28;20429;-81
2022/09/07 19:30:18;;;;;;;3.80;2.95;;;;;;;;;;10432181;28;20028;-78
2022/09/07 19:35:19;;;;;;;11.43;3.67;;;;;;;;;;10430203;28;20028;-80
2022/09/07 19:40:19;;;;;;;3.22;2.65;;;;;;;;;;10446223;28;20025;-82
2022/09/07 19:45:20;;;;;;;3.83;2.83;;;;;;;;;;10449052;28;20609;-83
2022/09/07 19:50:21;;;;;;;4.13;3.23;;;;;;;;;;10446605;28;20025;-82
2022/09/07 19:55:22;;;;;;;5.25;3.05;;;;;;;;;;10451595;28;20288;-83
2022/09/07 20:00:23;;;;;;;4.63;3.28;;;;;;;;;;10429085;28;20033;-81
2022/09/07 20:05:27;;;;;;;4.65;3.00;;;;;;;;;;10447962;28;20462;-81
2022/09/07 20:10:29;;;;;;;3.40;2.90;;;;;;;;;;10449788;28;20076;-78
2022/09/07 20:15:29;;;;;;;6.07;2.55;;;;;;;;;;10454050;28;20044;-81
2022/09/07 20:20:33;;;;;;;8.60;3.30;;;;;;;;;;10450197;28;20029;-80
2022/09/07 20:25:33;;;;;;;3.15;2.85;;;;;;;;;;10447313;28;20483;-81
2022/09/07 20:30:35;;;;;;;8.02;3.67;;;;;;;;;;10447933;28;20021;-82
2022/09/07 20:35:35;;;;;;;4.07;2.78;;;;;;;;;;10449485;28;20024;-78
2022/09/07 20:40:36;;;;;;;5.00;2.95;;;;;;;;;;10427934;28;20078;-80
2022/09/07 20:45:36;;;;;;;6.77;3.03;;;;;;;;;;10445570;28;20021;-80
2022/09/07 20:50:38;;;;;;;5.10;3.53;;;;;;;;;;10444411;28;20272;-79
2022/09/07 20:55:39;;;;;;;7.65;3.33;;;;;;;;;;10445737;28;20040;-80
2022/09/07 21:00:39;;;;;;;7.03;3.78;;;;;;;;;;10426356;28;20036;-81
2022/09/07 21:05:40;;;;;;;5.20;3.38;;;;;;;;;;10448054;28;20628;-78
2022/09/07 21:10:41;;;;;;;6.25;3.47;;;;;;;;;;10443377;28;20057;-79
2022/09/07 21:15:42;;;;;;;7.13;4.13;;;;;;;;;;10445578;28;20115;-78
2022/09/07 21:20:43;;;;;;;4.35;3.58;;;;;;;;;;10444261;28;20035;-79
2022/09/07 21:25:43;;;;;;;5.70;4.00;;;;;;;;;;10449811;28;20021;-78
2022/09/07 21:30:43;;;;;;;7.68;3.17;;;;;;;;;;10470238;28;20021;-80
2022/09/07 21:35:44;;;;;;;5.30;3.85;;;;;;;;;;10441183;28;20380;-84
2022/09/07 21:40:44;;;;;;;8.93;4.18;;;;;;;;;;10452974;28;20409;-80
2022/09/07 21:45:44;;;;;;;5.28;3.95;;;;;;;;;;10452807;28;20013;-80
2022/09/07 21:50:46;;;;;;;6.80;3.88;;;;;;;;;;10452665;28;20473;-86
2022/09/07 21:55:53;;;;;;;6.55;3.88;;;;;;;;;;10435631;28;20036;-81
2022/09/07 22:00:53;;;;;;;8.20;3.63;;;;;;;;;;10452913;28;20527;-88
2022/09/07 22:05:55;;;;;;;7.93;3.70;;;;;;;;;;10454192;28;20124;-83
2022/09/07 22:11:01;;;;;;;10.65;3.75;;;;;;;;;;10454636;28;20426;-80
2022/09/07 22:16:02;;;;;;;4.38;3.53;;;;;;;;;;10466810;28;20037;-79
2022/09/07 22:21:04;;;;;;;8.98;4.15;;;;;;;;;;10450790;28;20418;-81
2022/09/07 22:26:05;;;;;;;6.88;4.22;;;;;;;;;;10452744;28;20024;-80
2022/09/07 22:31:09;;;;;;;8.73;3.47;;;;;;;;;;10448949;28;20026;-82
2022/09/07 22:36:18;;;;;;;5.35;3.90;;;;;;;;;;10438767;28;20049;-79
2022/09/07 22:41:24;;;;;;;6.43;3.20;;;;;;;;;;10418368;28;20044;-81
2022/09/07 22:46:34;;;;;;;5.75;3.60;;;;;;;;;;10446651;28;20048;-81
2022/09/07 22:51:36;;;;;;;5.60;3.85;;;;;;;;;;10454027;28;20055;-79
2022/09/07 22:56:37;;;;;;;9.25;3.85;;;;;;;;;;10450353;28;20074;-80
2022/09/07 23:01:37;;;;;;;5.30;4.28;;;;;;;;;;10448249;28;20083;-79
2022/09/07 23:06:39;;;;;;;4.90;3.88;;;;;;;;;;10448675;28;20142;-79
2022/09/07 23:11:40;;;;;;;5.63;3.72;;;;;;;;;;10449095;28;20092;-78
2022/09/07 23:16:40;;;;;;;4.70;3.58;;;;;;;;;;10449655;28;20116;-80
2022/09/07 23:21:41;;;;;;;6.63;3.95;;;;;;;;;;10449339;28;20021;-82
2022/09/07 23:26:43;;;;;;;8.73;4.05;;;;;;;;;;10450888;28;20458;-78
2022/09/07 23:31:46;;;;;;;8.52;4.68;;;;;;;;;;10450593;28;20078;-83
2022/09/07 23:36:51;;;;;;;6.00;4.13;;;;;;;;;;10448868;28;20124;-81
2022/09/07 23:41:51;;;;;;;5.65;4.10;;;;;;;;;;10431356;28;20406;-80
2022/09/07 23:46:51;;;;;;;6.63;4.28;;;;;;;;;;10446114;28;20021;-80
2022/09/07 23:51:53;;;;;;;4.13;3.40;;;;;;;;;;10447694;28;20035;-79
2022/09/07 23:56:53;;;;;;;4.78;3.70;;;;;;;;;;10448504;28;20025;-79
